Chesapeake, VA

11:36 PM EDT on April 27, 2017 (GMT -0400)
Chesapeake Regional

Weather History for KCPK - February, 2013

Change the Weather History Date:

Monday, February 11, 2013

  Actual Average (KSFQ) Record (KSFQ)
Temperature  
Mean Temperature 54 °F -  
Max Temperature 64 °F 51 °F 73 °F (2009)
Min Temperature 44 °F 29 °F 1 °F (1999)
Degree Days  
Heating Degree Days 11    
Growing Degree Days 4 (Base 50)    
Moisture  
Dew Point 54 °F    
Average Humidity 89    
Maximum Humidity 100    
Minimum Humidity 71    
Precipitation  
Precipitation 0.07 in - - ()
Sea Level Pressure  
Sea Level Pressure 30.03 in    
Wind  
Wind Speed 9 mph (South)    
Max Wind Speed 15 mph    
Max Gust Speed 26 mph    
Visibility 8 miles    
Events Rain    
Averages and records for this station are not official NWS values.
T = Trace of Precipitation, MM = Missing Value Source: NWS Daily Summary

Daily Weather History Graph

Daily Weather History Graph

Search for Another Location

Airport or City:

Trip Planner

Search our weather history database for the weather conditions in past years. The results will help you decide how hot, cold, wet, or windy it might be!

Date:

Astronomy

Feb. 11, 2013 Rise Set
Actual Time 6:57 AM EST 5:41 PM EST
Civil Twilight 6:30 AM EST 6:08 PM EST
Nautical Twilight 6:00 AM EST 6:39 PM EST
Astronomical Twilight 5:30 AM EST 7:09 PM EST
Moon 7:24 AM EST (2/11) 7:31 PM EST (2/11)
Length of Visible Light 11h 37m
Length of Day
10h 44m
Waxing Crescent, 3% of the Moon is Illuminated
Feb 11
Waxing Crescent
Feb 17
First Quarter
Feb 25
Full
Mar 4
Last Quarter
Mar 11
New

Hourly Weather History & Observations

Time (EST) Temp. Windchill Dew Point Humidity Pressure Visibility Wind Dir Wind Speed Gust Speed Precip Events Conditions
12:15 AM 44.6 °F 41.4 °F 37.4 °F 76% 30.31 in 10.0 mi SE 5.8 mph - N/A   Mostly Cloudy
12:35 AM 44.6 °F 41.4 °F 37.4 °F 76% 30.29 in 10.0 mi ESE 5.8 mph - N/A   Overcast
12:55 AM 46.4 °F 42.4 °F 37.4 °F 71% 30.27 in 10.0 mi ESE 8.1 mph - N/A   Overcast
1:15 AM 46.4 °F 41.5 °F 39.2 °F 76% 30.25 in 10.0 mi ESE 10.4 mph - N/A   Overcast
1:35 AM 48.2 °F - 39.2 °F 71% 30.23 in 10.0 mi ESE 10.4 mph - N/A   Overcast
1:55 AM 48.2 °F - 42.8 °F 82% 30.23 in 10.0 mi SE 11.5 mph 17.3 mph N/A   Overcast
2:15 AM 50.0 °F - 42.8 °F 76% 30.23 in 10.0 mi SE 8.1 mph - N/A   Overcast
2:35 AM 48.2 °F - 42.8 °F 82% 30.21 in 10.0 mi SSE 5.8 mph - N/A   Overcast
3:15 AM 51.8 °F - 44.6 °F 76% 30.19 in 10.0 mi SSE 8.1 mph - N/A   Overcast
3:35 AM 51.8 °F - 44.6 °F 76% 30.19 in 10.0 mi SSE 9.2 mph - N/A   Overcast
3:55 AM 51.8 °F - 44.6 °F 76% 30.18 in 10.0 mi SE 8.1 mph - N/A   Overcast
4:15 AM 51.8 °F - 44.6 °F 76% 30.18 in 10.0 mi SSE 5.8 mph - N/A   Overcast
4:35 AM 51.8 °F - 46.4 °F 82% 30.19 in 10.0 mi SSE 3.5 mph - N/A   Overcast
4:55 AM 53.6 °F - 46.4 °F 77% 30.18 in 10.0 mi SE 4.6 mph - N/A   Overcast
5:15 AM 51.8 °F - 46.4 °F 82% 30.17 in 10.0 mi SE 5.8 mph - N/A Rain Light Rain
5:35 AM 51.8 °F - 48.2 °F 88% 30.16 in 10.0 mi SSE 4.6 mph - N/A   Light Drizzle
5:55 AM 51.8 °F - 48.2 °F 88% 30.15 in 10.0 mi SSE 5.8 mph - N/A   Overcast
6:15 AM 53.6 °F - 48.2 °F 82% 30.15 in 10.0 mi SSE 6.9 mph - N/A Rain Rain
6:35 AM 53.6 °F - 48.2 °F 82% 30.15 in 10.0 mi South 5.8 mph - N/A   Drizzle
6:55 AM 53.6 °F - 50.0 °F 88% 30.14 in 7.0 mi SSE 6.9 mph - N/A   Drizzle
7:15 AM 53.6 °F - 51.8 °F 94% 30.14 in 7.0 mi South 5.8 mph - 0.01 in   Drizzle
7:35 AM 53.6 °F - 51.8 °F 94% 30.14 in 5.0 mi SSE 5.8 mph - 0.01 in   Drizzle
7:55 AM 53.6 °F - 51.8 °F 94% 30.14 in 7.0 mi SSE 6.9 mph - N/A Rain Rain
8:15 AM 53.6 °F - 51.8 °F 94% 30.14 in 7.0 mi South 8.1 mph - 0.01 in Rain Light Rain
8:35 AM 53.6 °F - 53.6 °F 100% 30.13 in 7.0 mi South 8.1 mph - 0.02 in Rain Rain
8:55 AM 53.6 °F - 53.6 °F 100% 30.12 in 7.0 mi South 9.2 mph - N/A   Drizzle
9:15 AM 55.4 °F - 53.6 °F 94% 30.11 in 7.0 mi South 10.4 mph - 0.01 in   Drizzle
9:35 AM 55.4 °F - 55.4 °F 100% 30.09 in 7.0 mi South 10.4 mph 18.4 mph 0.01 in   Light Drizzle
9:55 AM 55.4 °F - 55.4 °F 100% 30.08 in 7.0 mi South 9.2 mph - N/A   Overcast
10:15 AM 57.2 °F - 55.4 °F 94% 30.08 in 3.0 mi South 10.4 mph - N/A   Overcast
10:35 AM 57.2 °F - 55.4 °F 94% 30.07 in 2.0 mi South 12.7 mph - N/A   Drizzle
10:55 AM 57.2 °F - 57.2 °F 100% 30.06 in 3.0 mi South 12.7 mph - 0.01 in   Drizzle
11:15 AM 57.2 °F - 57.2 °F 100% 30.05 in 2.0 mi SSW 12.7 mph 17.3 mph 0.02 in Rain Rain
11:35 AM 57.2 °F - 57.2 °F 100% 30.03 in 2.0 mi South 12.7 mph 17.3 mph 0.02 in   Light Drizzle
11:55 AM 59.0 °F - 57.2 °F 94% 30.01 in 3.0 mi SSW 11.5 mph - N/A   Overcast
12:15 PM 59.0 °F - 59.0 °F 100% 30.01 in 3.0 mi SSW 15.0 mph 24.2 mph N/A   Overcast
12:35 PM 60.8 °F - 59.0 °F 94% 29.99 in 7.0 mi SSW 10.4 mph - N/A   Overcast
12:55 PM 60.8 °F - 59.0 °F 94% 29.97 in 7.0 mi SSW 10.4 mph 17.3 mph N/A   Overcast
1:15 PM 60.8 °F - 60.8 °F 100% 29.96 in 7.0 mi SSW 10.4 mph 19.6 mph N/A   Overcast
1:35 PM 60.8 °F - 60.8 °F 100% 29.95 in 7.0 mi SSW 12.7 mph 20.7 mph N/A   Overcast
1:55 PM 60.8 °F - 60.8 °F 100% 29.95 in 5.0 mi SSW 15.0 mph 26.5 mph N/A   Overcast
2:15 PM 62.6 °F - 60.8 °F 94% 29.95 in 10.0 mi SW 10.4 mph 20.7 mph N/A   Overcast
2:35 PM 62.6 °F - 60.8 °F 94% 29.94 in 7.0 mi SW 15.0 mph 21.9 mph N/A   Overcast
2:55 PM 62.6 °F - 60.8 °F 94% 29.92 in 7.0 mi SSW 11.5 mph - N/A   Overcast
3:15 PM 62.6 °F - 60.8 °F 94% 29.91 in 10.0 mi SSW 11.5 mph - N/A   Overcast
3:35 PM 62.6 °F - 60.8 °F 94% 29.91 in 10.0 mi SSW 15.0 mph 18.4 mph N/A   Overcast
3:55 PM 62.6 °F - 60.8 °F 94% 29.91 in 10.0 mi SSW 12.7 mph 21.9 mph N/A   Overcast
4:15 PM 62.6 °F - 60.8 °F 94% 29.92 in 10.0 mi SW 13.8 mph 21.9 mph N/A   Overcast
4:35 PM 62.6 °F - 60.8 °F 94% 29.90 in 10.0 mi SW 12.7 mph 21.9 mph N/A   Overcast
4:55 PM 62.6 °F - 60.8 °F 94% 29.90 in 10.0 mi SW 12.7 mph 18.4 mph N/A   Overcast
5:55 PM 62.6 °F - 60.8 °F 94% 29.88 in 10.0 mi SW 12.7 mph 18.4 mph N/A   Overcast
6:15 PM 62.6 °F - 60.8 °F 94% 29.88 in 10.0 mi SW 12.7 mph 18.4 mph N/A   Mostly Cloudy
6:35 PM 62.6 °F - 60.8 °F 94% 29.89 in 10.0 mi SW 13.8 mph 18.4 mph N/A   Mostly Cloudy
6:55 PM 62.6 °F - 60.8 °F 94% 29.88 in 10.0 mi SSW 12.7 mph 20.7 mph N/A   Scattered Clouds
7:15 PM 64.4 °F - 60.8 °F 88% 29.88 in 10.0 mi SW 13.8 mph 19.6 mph N/A   Clear
7:35 PM 62.6 °F - 60.8 °F 94% 29.88 in 10.0 mi SW 12.7 mph 19.6 mph N/A   Scattered Clouds
7:55 PM 64.4 °F - 60.8 °F 88% 29.88 in 10.0 mi SW 13.8 mph - N/A   Overcast
8:15 PM 64.4 °F - 59.0 °F 83% 29.87 in 10.0 mi SW 12.7 mph 21.9 mph N/A   Overcast
8:35 PM 62.6 °F - 59.0 °F 88% 29.88 in 10.0 mi WSW 11.5 mph 18.4 mph N/A   Mostly Cloudy
8:55 PM 64.4 °F - 59.0 °F 83% 29.88 in 10.0 mi SW 13.8 mph 18.4 mph N/A   Mostly Cloudy
9:15 PM 62.6 °F - 59.0 °F 88% 29.86 in 10.0 mi SW 12.7 mph 19.6 mph N/A   Mostly Cloudy
9:35 PM 62.6 °F - 59.0 °F 88% 29.86 in 10.0 mi SW 12.7 mph 17.3 mph N/A   Scattered Clouds
9:55 PM 62.6 °F - 59.0 °F 88% 29.86 in 10.0 mi SW 15.0 mph 21.9 mph N/A   Clear
10:15 PM 62.6 °F - 57.2 °F 82% 29.86 in 10.0 mi SW 10.4 mph 20.7 mph N/A   Clear
10:35 PM 62.6 °F - 57.2 °F 82% 29.86 in 10.0 mi SW 13.8 mph 18.4 mph N/A   Clear
10:55 PM 62.6 °F - 57.2 °F 82% 29.85 in 10.0 mi SW 11.5 mph 17.3 mph N/A   Clear
11:15 PM 60.8 °F - 57.2 °F 88% 29.85 in 10.0 mi WSW 12.7 mph - N/A   Clear
11:35 PM 62.6 °F - 57.2 °F 82% 29.85 in 10.0 mi SW 12.7 mph 20.7 mph N/A   Clear
11:55 PM 60.8 °F - 55.4 °F 82% 29.85 in 10.0 mi SW 13.8 mph - N/A   Clear